Time;durP1;ratioP1;P1;durP2;ratioP2;P2;SDS_P1;SDS_P2;PMS_P1;PMS_P2;Temp;Humidity;BMP_temperature;BMP_pressure;BME280_temperature;BME280_humidity;BME280_pressure;Samples;Min_cycle;Max_cycle;Signal;HPM_P1;HPM_P2
2021/04/24 00:02:14;;;;;;;7.18;3.00;;;;;;;;;;5071841;28;20058;-70
2021/04/24 00:04:42;;;;;;;9.13;2.60;;;;;;;;;;5071689;28;20044;-70
2021/04/24 00:07:08;;;;;;;7.53;3.30;;;;;;;;;;5077237;28;20401;-70
2021/04/24 00:09:34;;;;;;;8.27;2.78;;;;;;;;;;5071781;28;20044;-70
2021/04/24 00:12:00;;;;;;;7.38;2.85;;;;;;;;;;5070723;28;20045;-70
2021/04/24 00:14:26;;;;;;;5.32;3.03;;;;;;;;;;5071789;28;20495;-70
2021/04/24 00:16:52;;;;;;;8.30;2.70;;;;;;;;;;5070814;28;20052;-70
2021/04/24 00:19:18;;;;;;;6.10;2.90;;;;;;;;;;5070990;28;20131;-70
2021/04/24 00:21:45;;;;;;;8.70;3.10;;;;;;;;;;5070744;28;20485;-70
2021/04/24 00:24:11;;;;;;;5.93;2.40;;;;;;;;;;5071034;28;20501;-70
2021/04/24 00:26:37;;;;;;;8.70;3.95;;;;;;;;;;5071725;28;20052;-70
2021/04/24 00:29:04;;;;;;;5.00;3.20;;;;;;;;;;5074591;28;20252;-70
2021/04/24 00:31:30;;;;;;;5.95;3.00;;;;;;;;;;5074778;28;20048;-70
2021/04/24 00:33:56;;;;;;;7.30;3.13;;;;;;;;;;5074808;28;20155;-70
2021/04/24 00:36:22;;;;;;;9.20;2.80;;;;;;;;;;5074033;28;20047;-70
2021/04/24 00:38:49;;;;;;;4.35;2.40;;;;;;;;;;5074103;28;20049;-70
2021/04/24 00:41:15;;;;;;;11.63;3.35;;;;;;;;;;5081634;28;20408;-70
2021/04/24 00:43:41;;;;;;;6.05;3.15;;;;;;;;;;5094880;28;20093;-70
2021/04/24 00:46:08;;;;;;;10.25;3.42;;;;;;;;;;5087149;28;20476;-70
2021/04/24 00:48:34;;;;;;;7.10;4.00;;;;;;;;;;5073342;28;20402;-70
2021/04/24 00:51:00;;;;;;;9.93;3.13;;;;;;;;;;5074433;28;20405;-70
2021/04/24 00:53:26;;;;;;;8.45;3.35;;;;;;;;;;5074010;28;20059;-69
2021/04/24 00:55:53;;;;;;;6.80;3.05;;;;;;;;;;5073781;28;20075;-69
2021/04/24 00:58:19;;;;;;;6.53;3.28;;;;;;;;;;5073477;28;20114;-69
2021/04/24 01:00:45;;;;;;;9.52;3.92;;;;;;;;;;5072222;28;20417;-69
2021/04/24 01:03:11;;;;;;;8.93;3.30;;;;;;;;;;5073750;28;20060;-69
2021/04/24 01:05:40;;;;;;;7.28;3.60;;;;;;;;;;5073425;28;20131;-69
2021/04/24 01:08:08;;;;;;;8.90;3.58;;;;;;;;;;5075167;28;20496;-69
2021/04/24 01:10:35;;;;;;;9.40;3.53;;;;;;;;;;5073309;28;20049;-69
2021/04/24 01:13:02;;;;;;;6.78;3.28;;;;;;;;;;5074167;28;20538;-69
2021/04/24 01:15:28;;;;;;;7.72;3.63;;;;;;;;;;5073556;28;20052;-69
2021/04/24 01:17:54;;;;;;;6.65;3.22;;;;;;;;;;5073125;28;20432;-69
2021/04/24 01:20:21;;;;;;;5.70;3.15;;;;;;;;;;5073760;28;20055;-69
2021/04/24 01:22:49;;;;;;;8.07;3.78;;;;;;;;;;5073799;28;20478;-70
2021/04/24 01:25:16;;;;;;;6.00;3.45;;;;;;;;;;5073630;28;20133;-70
2021/04/24 01:27:46;;;;;;;9.00;3.80;;;;;;;;;;5072393;28;20052;-70
2021/04/24 01:30:13;;;;;;;5.47;3.38;;;;;;;;;;5073328;28;20053;-70
2021/04/24 01:32:39;;;;;;;8.27;3.70;;;;;;;;;;5073562;28;20048;-70
2021/04/24 01:35:08;;;;;;;7.45;3.78;;;;;;;;;;5073882;28;20048;-70
2021/04/24 01:37:34;;;;;;;7.55;3.10;;;;;;;;;;5076114;28;20045;-70
2021/04/24 01:40:01;;;;;;;9.30;3.90;;;;;;;;;;5082238;28;20040;-70
2021/04/24 01:42:27;;;;;;;10.18;3.85;;;;;;;;;;5083797;28;20043;-70
2021/04/24 01:44:53;;;;;;;5.78;3.10;;;;;;;;;;5081483;28;20417;-70
2021/04/24 01:47:19;;;;;;;8.13;3.40;;;;;;;;;;5076970;28;20060;-69
2021/04/24 01:49:45;;;;;;;6.57;3.17;;;;;;;;;;5083554;28;20137;-70
2021/04/24 01:52:11;;;;;;;6.82;3.78;;;;;;;;;;5075670;28;20072;-69
2021/04/24 01:54:37;;;;;;;7.07;3.47;;;;;;;;;;5073574;28;20041;-69
2021/04/24 01:57:04;;;;;;;7.47;3.72;;;;;;;;;;5072357;28;20444;-70
2021/04/24 01:59:32;;;;;;;9.38;4.13;;;;;;;;;;5072952;28;20057;-69
2021/04/24 02:01:58;;;;;;;7.70;4.00;;;;;;;;;;5072975;28;20420;-70
2021/04/24 02:04:27;;;;;;;8.35;3.65;;;;;;;;;;5073347;28;20057;-70
2021/04/24 02:06:53;;;;;;;9.00;3.33;;;;;;;;;;5072981;28;20063;-70
2021/04/24 02:09:20;;;;;;;8.35;4.07;;;;;;;;;;5079463;28;20056;-70
2021/04/24 02:12:05;;;;;;;8.93;3.85;;;;;;;;;;5079556;28;20097;-70
2021/04/24 02:14:32;;;;;;;7.47;3.38;;;;;;;;;;5082021;28;20431;-70
2021/04/24 02:16:58;;;;;;;7.70;3.58;;;;;;;;;;5074970;28;20170;-70
2021/04/24 02:19:24;;;;;;;9.50;3.78;;;;;;;;;;5070929;28;20504;-69
2021/04/24 02:21:50;;;;;;;9.30;4.07;;;;;;;;;;5072646;28;20059;-70
2021/04/24 02:24:17;;;;;;;11.77;4.65;;;;;;;;;;5072349;28;20044;-69
2021/04/24 02:26:43;;;;;;;8.90;4.47;;;;;;;;;;5071213;28;20052;-70
2021/04/24 02:29:10;;;;;;;8.57;3.90;;;;;;;;;;5075157;28;20080;-70
2021/04/24 02:31:36;;;;;;;8.32;4.13;;;;;;;;;;5072076;28;20047;-70
2021/04/24 02:34:03;;;;;;;9.20;4.65;;;;;;;;;;5075996;28;20048;-70
2021/04/24 02:36:29;;;;;;;9.13;4.10;;;;;;;;;;5083139;28;20036;-70
2021/04/24 02:38:55;;;;;;;7.78;4.18;;;;;;;;;;5081576;28;20469;-70
2021/04/24 02:41:21;;;;;;;8.57;3.97;;;;;;;;;;5067823;28;20389;-70
2021/04/24 02:43:47;;;;;;;8.20;4.10;;;;;;;;;;5072190;28;20482;-70
2021/04/24 02:46:14;;;;;;;6.57;3.80;;;;;;;;;;5072204;28;20036;-70
2021/04/24 02:48:40;;;;;;;6.97;3.80;;;;;;;;;;5071428;28;20045;-70
2021/04/24 02:51:06;;;;;;;7.40;4.25;;;;;;;;;;5072374;28;20071;-70
2021/04/24 02:53:32;;;;;;;11.45;4.00;;;;;;;;;;5072220;28;20064;-70
2021/04/24 02:55:58;;;;;;;9.90;4.72;;;;;;;;;;5066377;28;20233;-70
2021/04/24 02:58:24;;;;;;;7.38;3.78;;;;;;;;;;5071811;28;20059;-70
2021/04/24 03:00:49;;;;;;;9.63;4.47;;;;;;;;;;5071250;28;20132;-70
2021/04/24 03:03:16;;;;;;;7.38;4.32;;;;;;;;;;5072205;28;20123;-70
2021/04/24 03:05:43;;;;;;;7.10;4.00;;;;;;;;;;5071298;28;20040;-72
2021/04/24 03:08:10;;;;;;;8.23;4.22;;;;;;;;;;5071463;28;20142;-70
2021/04/24 03:10:37;;;;;;;7.85;3.83;;;;;;;;;;5078326;28;20405;-70
2021/04/24 03:13:05;;;;;;;13.05;4.88;;;;;;;;;;5072300;28;20052;-70
2021/04/24 03:15:31;;;;;;;8.85;4.50;;;;;;;;;;5072163;28;20063;-70
2021/04/24 03:17:57;;;;;;;10.32;3.95;;;;;;;;;;5071470;28;20048;-70
2021/04/24 03:20:24;;;;;;;9.38;4.25;;;;;;;;;;5072331;28;20604;-70
2021/04/24 03:22:51;;;;;;;7.57;3.83;;;;;;;;;;5072048;28;20071;-70
2021/04/24 03:25:17;;;;;;;10.38;4.43;;;;;;;;;;5072094;28;20106;-70
2021/04/24 03:27:43;;;;;;;7.03;3.85;;;;;;;;;;5071399;28;20469;-70
2021/04/24 03:30:11;;;;;;;8.88;4.22;;;;;;;;;;5071944;28;20473;-70
2021/04/24 03:32:37;;;;;;;9.55;3.95;;;;;;;;;;5072273;28;20500;-70
2021/04/24 03:35:05;;;;;;;11.07;5.10;;;;;;;;;;5072063;28;20099;-70
2021/04/24 03:37:32;;;;;;;8.85;4.47;;;;;;;;;;5071085;28;20056;-70
2021/04/24 03:39:58;;;;;;;6.55;3.75;;;;;;;;;;5071942;28;20403;-70
2021/04/24 03:42:24;;;;;;;7.85;4.32;;;;;;;;;;5071926;28;20052;-70
2021/04/24 03:44:50;;;;;;;12.88;4.38;;;;;;;;;;5071808;28;20051;-70
2021/04/24 03:47:16;;;;;;;14.80;4.65;;;;;;;;;;5071044;28;20045;-70
2021/04/24 03:49:42;;;;;;;11.68;4.93;;;;;;;;;;5071877;28;20099;-70
2021/04/24 03:52:08;;;;;;;9.50;3.90;;;;;;;;;;5071888;28;20052;-70
2021/04/24 03:54:35;;;;;;;11.23;4.07;;;;;;;;;;5071685;28;20123;-70
2021/04/24 03:57:01;;;;;;;10.00;4.57;;;;;;;;;;5071073;28;20048;-70
2021/04/24 03:59:27;;;;;;;11.77;5.10;;;;;;;;;;5071695;28;20045;-70
2021/04/24 04:01:53;;;;;;;11.43;4.75;;;;;;;;;;5073073;28;20396;-70
2021/04/24 04:04:19;;;;;;;8.70;4.95;;;;;;;;;;5075496;28;20114;-70
2021/04/24 04:06:45;;;;;;;10.57;4.80;;;;;;;;;;5074768;28;20041;-70
2021/04/24 04:09:11;;;;;;;9.40;4.53;;;;;;;;;;5075365;28;20048;-70
2021/04/24 04:11:38;;;;;;;14.95;5.00;;;;;;;;;;5081461;28;20060;-70
2021/04/24 04:14:05;;;;;;;8.98;4.68;;;;;;;;;;5074965;28;20109;-70
2021/04/24 04:16:31;;;;;;;11.15;4.65;;;;;;;;;;5074994;28;20060;-70
2021/04/24 04:18:57;;;;;;;10.18;4.13;;;;;;;;;;5073937;28;20044;-70
2021/04/24 04:21:23;;;;;;;11.40;4.55;;;;;;;;;;5075074;28;20489;-70
2021/04/24 04:23:49;;;;;;;8.70;4.35;;;;;;;;;;5074782;28;20063;-70
2021/04/24 04:26:16;;;;;;;7.05;3.95;;;;;;;;;;5074823;28;20041;-70
2021/04/24 04:28:43;;;;;;;11.05;4.43;;;;;;;;;;5074501;28;20048;-70
2021/04/24 04:31:10;;;;;;;10.38;5.30;;;;;;;;;;5074597;28;20062;-70
2021/04/24 04:33:36;;;;;;;9.05;4.07;;;;;;;;;;5075010;28;20045;-70
2021/04/24 04:36:04;;;;;;;9.07;4.55;;;;;;;;;;5073836;28;20043;-70
2021/04/24 04:38:30;;;;;;;9.90;4.40;;;;;;;;;;5074141;28;20076;-70
2021/04/24 04:40:57;;;;;;;10.05;4.45;;;;;;;;;;5074713;28;20040;-70
2021/04/24 04:43:23;;;;;;;11.63;4.53;;;;;;;;;;5074527;28;20382;-70
2021/04/24 04:45:50;;;;;;;9.45;4.07;;;;;;;;;;5074649;28;20669;-70
2021/04/24 04:48:16;;;;;;;9.13;4.95;;;;;;;;;;5073542;28;20067;-70
2021/04/24 04:50:42;;;;;;;11.75;5.45;;;;;;;;;;5074651;28;20044;-70
2021/04/24 04:53:08;;;;;;;11.63;4.03;;;;;;;;;;5077190;28;20049;-69
2021/04/24 04:55:34;;;;;;;10.73;4.57;;;;;;;;;;5074322;28;20171;-70
2021/04/24 04:58:01;;;;;;;9.25;5.55;;;;;;;;;;5073720;28;20044;-69
2021/04/24 05:00:27;;;;;;;8.82;4.45;;;;;;;;;;5073995;28;20057;-69
2021/04/24 05:02:54;;;;;;;10.52;5.25;;;;;;;;;;5074126;28;20048;-69
2021/04/24 05:05:20;;;;;;;8.52;4.57;;;;;;;;;;5073925;28;20102;-69
2021/04/24 05:07:48;;;;;;;9.02;4.32;;;;;;;;;;5073813;28;20049;-69
2021/04/24 05:10:15;;;;;;;10.10;5.32;;;;;;;;;;5071672;28;20559;-69
2021/04/24 05:12:41;;;;;;;12.88;5.32;;;;;;;;;;5081468;28;20079;-69
2021/04/24 05:15:08;;;;;;;8.90;5.13;;;;;;;;;;5073427;28;20048;-69
2021/04/24 05:17:34;;;;;;;8.45;4.72;;;;;;;;;;5072014;28;20386;-70
2021/04/24 05:20:01;;;;;;;11.32;5.43;;;;;;;;;;5074087;28;20106;-69
2021/04/24 05:22:27;;;;;;;10.65;5.03;;;;;;;;;;5073477;28;20048;-70
2021/04/24 05:24:54;;;;;;;10.32;4.82;;;;;;;;;;5072888;28;20087;-70
2021/04/24 05:27:20;;;;;;;8.40;4.50;;;;;;;;;;5072450;28;20060;-70
2021/04/24 05:29:46;;;;;;;8.05;4.82;;;;;;;;;;5073530;28;20056;-70
2021/04/24 05:32:12;;;;;;;14.27;4.55;;;;;;;;;;5073399;28;20048;-70
2021/04/24 05:34:38;;;;;;;12.23;5.35;;;;;;;;;;5073357;28;20135;-70
2021/04/24 05:37:05;;;;;;;9.43;4.75;;;;;;;;;;5072827;28;20135;-70
2021/04/24 05:39:31;;;;;;;17.90;5.47;;;;;;;;;;5072874;28;20041;-70
2021/04/24 05:41:57;;;;;;;10.55;4.90;;;;;;;;;;5072977;28;20495;-70
2021/04/24 05:44:23;;;;;;;14.40;6.38;;;;;;;;;;5073147;28;20541;-71
2021/04/24 05:46:49;;;;;;;8.40;4.85;;;;;;;;;;5072462;28;20090;-71
2021/04/24 05:49:15;;;;;;;13.63;5.70;;;;;;;;;;5071524;28;20056;-71
2021/04/24 05:51:41;;;;;;;9.68;5.03;;;;;;;;;;5071437;28;20059;-70
2021/04/24 05:54:08;;;;;;;10.63;5.63;;;;;;;;;;5073028;28;20064;-70
2021/04/24 05:56:34;;;;;;;10.70;5.22;;;;;;;;;;5072316;28;20052;-70
2021/04/24 05:59:00;;;;;;;13.00;6.88;;;;;;;;;;5071948;28;20075;-71
2021/04/24 06:01:26;;;;;;;10.23;5.97;;;;;;;;;;5073290;28;20397;-71
2021/04/24 06:03:54;;;;;;;13.27;5.78;;;;;;;;;;5072655;28;20067;-70
2021/04/24 06:06:20;;;;;;;10.35;6.28;;;;;;;;;;5069880;28;20531;-71
2021/04/24 06:08:46;;;;;;;11.77;6.53;;;;;;;;;;5072068;28;20040;-70
2021/04/24 06:11:13;;;;;;;11.65;6.32;;;;;;;;;;5068750;28;20473;-70
2021/04/24 06:13:39;;;;;;;14.55;6.00;;;;;;;;;;5075636;28;20410;-70
2021/04/24 06:16:06;;;;;;;13.07;6.03;;;;;;;;;;5072100;28;20068;-70
2021/04/24 06:18:32;;;;;;;11.90;5.88;;;;;;;;;;5071627;28;20049;-70
2021/04/24 06:20:58;;;;;;;14.18;6.68;;;;;;;;;;5071537;28;20053;-70
2021/04/24 06:23:25;;;;;;;12.77;6.47;;;;;;;;;;5072797;28;20501;-71
2021/04/24 06:25:51;;;;;;;12.73;8.15;;;;;;;;;;5071921;28;20052;-70
2021/04/24 06:28:18;;;;;;;14.85;7.00;;;;;;;;;;5072066;28;20071;-70
2021/04/24 06:30:44;;;;;;;19.45;8.05;;;;;;;;;;5072350;28;20047;-70
2021/04/24 06:33:10;;;;;;;19.25;6.43;;;;;;;;;;5072633;28;20048;-70
2021/04/24 06:35:36;;;;;;;22.00;6.63;;;;;;;;;;5072962;28;20093;-70
2021/04/24 06:38:02;;;;;;;15.85;6.78;;;;;;;;;;5072344;28;20044;-70
2021/04/24 06:40:29;;;;;;;15.23;7.38;;;;;;;;;;5072114;28;20060;-70
2021/04/24 06:42:55;;;;;;;16.10;9.57;;;;;;;;;;5072492;28;20048;-71
2021/04/24 06:45:22;;;;;;;17.77;9.25;;;;;;;;;;5072469;28;20056;-70
2021/04/24 06:47:49;;;;;;;14.25;7.07;;;;;;;;;;5072087;28;20068;-70
2021/04/24 06:50:16;;;;;;;8.80;5.75;;;;;;;;;;5072347;28;20040;-70
2021/04/24 06:52:42;;;;;;;13.35;6.38;;;;;;;;;;5071589;28;20057;-69
2021/04/24 06:55:10;;;;;;;12.23;6.35;;;;;;;;;;5072201;28;20044;-69
2021/04/24 06:57:36;;;;;;;14.43;7.88;;;;;;;;;;5071783;28;20455;-69
2021/04/24 07:00:02;;;;;;;12.85;7.30;;;;;;;;;;5072148;28;20102;-69
2021/04/24 07:02:29;;;;;;;14.60;7.90;;;;;;;;;;5072317;28;20052;-69
2021/04/24 07:04:55;;;;;;;12.25;6.63;;;;;;;;;;5071990;28;20063;-69
2021/04/24 07:07:21;;;;;;;12.18;8.00;;;;;;;;;;5071010;28;20045;-70
2021/04/24 07:09:47;;;;;;;13.20;6.55;;;;;;;;;;5071597;28;20053;-70
2021/04/24 07:12:13;;;;;;;12.40;6.65;;;;;;;;;;5071961;28;20084;-71
2021/04/24 07:14:39;;;;;;;12.73;6.72;;;;;;;;;;5081210;28;20091;-70
2021/04/24 07:17:05;;;;;;;14.27;7.43;;;;;;;;;;5074895;28;20051;-69
2021/04/24 07:19:32;;;;;;;11.80;7.45;;;;;;;;;;5072277;28;20072;-69
2021/04/24 07:21:58;;;;;;;11.95;8.02;;;;;;;;;;5071765;28;20097;-70
2021/04/24 07:24:24;;;;;;;12.43;6.82;;;;;;;;;;5071642;28;20056;-71
2021/04/24 07:26:50;;;;;;;12.55;7.22;;;;;;;;;;5067309;28;20048;-68
2021/04/24 07:29:16;;;;;;;12.55;6.95;;;;;;;;;;5069585;28;20062;-67
2021/04/24 07:31:43;;;;;;;9.73;6.53;;;;;;;;;;5071522;28;20485;-68
2021/04/24 07:34:10;;;;;;;11.63;7.75;;;;;;;;;;5071323;28;20382;-69
2021/04/24 07:36:38;;;;;;;19.33;8.20;;;;;;;;;;5072843;28;20051;-69
2021/04/24 07:39:06;;;;;;;12.40;7.70;;;;;;;;;;5073952;28;20045;-67
2021/04/24 07:41:32;;;;;;;16.20;8.43;;;;;;;;;;5075465;28;20473;-68
2021/04/24 07:43:58;;;;;;;11.57;7.13;;;;;;;;;;5075585;28;20057;-69
2021/04/24 07:46:24;;;;;;;10.60;7.07;;;;;;;;;;5075669;28;20053;-66
2021/04/24 07:48:50;;;;;;;12.77;7.35;;;;;;;;;;5075235;28;20048;-66
2021/04/24 07:51:16;;;;;;;13.82;7.32;;;;;;;;;;5075915;28;20053;-65
2021/04/24 07:53:43;;;;;;;11.70;8.20;;;;;;;;;;5073655;28;20110;-65
2021/04/24 07:56:09;;;;;;;11.95;8.02;;;;;;;;;;5075246;28;20056;-66
2021/04/24 07:58:35;;;;;;;14.73;7.78;;;;;;;;;;5075069;28;20052;-64
2021/04/24 08:01:01;;;;;;;12.65;7.65;;;;;;;;;;5075664;28;20084;-66
2021/04/24 08:03:27;;;;;;;14.50;8.20;;;;;;;;;;5072541;28;20404;-65
2021/04/24 08:05:53;;;;;;;10.77;7.80;;;;;;;;;;5074837;28;20052;-65
2021/04/24 08:08:19;;;;;;;10.13;7.70;;;;;;;;;;5073989;28;20052;-66
2021/04/24 08:10:46;;;;;;;13.48;9.10;;;;;;;;;;5077987;28;20503;-64
2021/04/24 08:13:12;;;;;;;14.68;8.95;;;;;;;;;;5075720;28;20045;-63
2021/04/24 08:15:38;;;;;;;14.32;8.48;;;;;;;;;;5083991;28;20044;-63
2021/04/24 08:18:06;;;;;;;13.57;8.65;;;;;;;;;;5074419;28;20392;-64
2021/04/24 08:20:32;;;;;;;12.75;8.48;;;;;;;;;;5074065;28;20048;-64
2021/04/24 08:22:58;;;;;;;10.35;7.43;;;;;;;;;;5058897;28;20432;-64
2021/04/24 08:25:24;;;;;;;11.15;7.75;;;;;;;;;;5073391;28;20397;-64
2021/04/24 08:27:51;;;;;;;14.40;8.90;;;;;;;;;;5069872;28;20044;-64
2021/04/24 08:30:18;;;;;;;13.30;9.05;;;;;;;;;;5073958;28;20059;-64
2021/04/24 08:32:45;;;;;;;18.13;9.00;;;;;;;;;;5073973;28;20045;-64
2021/04/24 08:35:12;;;;;;;13.93;7.90;;;;;;;;;;5075184;28;20185;-64
2021/04/24 08:37:38;;;;;;;11.77;8.38;;;;;;;;;;5074503;28;20281;-64
2021/04/24 08:40:06;;;;;;;12.45;8.38;;;;;;;;;;5060547;28;20065;-64
2021/04/24 08:42:33;;;;;;;14.25;7.95;;;;;;;;;;5070842;28;20559;-64
2021/04/24 08:45:00;;;;;;;11.65;8.18;;;;;;;;;;5072846;28;20059;-64
2021/04/24 08:47:27;;;;;;;12.63;8.02;;;;;;;;;;5070870;28;20495;-64
2021/04/24 08:49:54;;;;;;;12.10;7.20;;;;;;;;;;5068191;28;20093;-64
2021/04/24 08:52:21;;;;;;;10.75;7.20;;;;;;;;;;5073033;28;20471;-64
2021/04/24 08:54:47;;;;;;;13.18;7.80;;;;;;;;;;5074295;28;20087;-64
2021/04/24 08:57:14;;;;;;;12.98;8.82;;;;;;;;;;5074448;28;20056;-64
2021/04/24 08:59:40;;;;;;;12.95;8.27;;;;;;;;;;5074613;28;20044;-64
2021/04/24 09:02:07;;;;;;;12.07;8.23;;;;;;;;;;5074744;28;20052;-64
2021/04/24 09:04:35;;;;;;;12.60;8.27;;;;;;;;;;5074379;28;20052;-64
2021/04/24 09:07:01;;;;;;;10.10;6.82;;;;;;;;;;5067822;28;20420;-64
2021/04/24 09:09:28;;;;;;;11.40;7.30;;;;;;;;;;5074826;28;20080;-65
2021/04/24 09:11:56;;;;;;;11.73;6.72;;;;;;;;;;5073229;28;20055;-63
2021/04/24 09:14:25;;;;;;;9.38;6.80;;;;;;;;;;5072915;28;20048;-64
2021/04/24 09:16:51;;;;;;;10.20;7.63;;;;;;;;;;5085488;28;20040;-66
2021/04/24 09:19:29;;;;;;;11.73;7.07;;;;;;;;;;5075248;28;20051;-65
2021/04/24 09:22:14;;;;;;;11.43;7.47;;;;;;;;;;5074450;28;20094;-66
2021/04/24 09:24:42;;;;;;;11.90;7.43;;;;;;;;;;5074140;28;20048;-65
2021/04/24 09:27:08;;;;;;;11.68;7.50;;;;;;;;;;5073187;28;20640;-66
2021/04/24 09:29:34;;;;;;;11.20;7.07;;;;;;;;;;5074081;28;20053;-68
2021/04/24 09:32:18;;;;;;;9.90;6.47;;;;;;;;;;5073554;28;20044;-66
2021/04/24 09:34:47;;;;;;;15.25;6.70;;;;;;;;;;5073887;28;20167;-65
2021/04/24 09:37:15;;;;;;;16.23;7.38;;;;;;;;;;5073929;28;20056;-67
2021/04/24 09:39:45;;;;;;;12.48;7.55;;;;;;;;;;5074110;28;20041;-66
2021/04/24 09:42:32;;;;;;;12.00;7.13;;;;;;;;;;5074042;28;20110;-67
2021/04/24 09:44:59;;;;;;;11.73;6.88;;;;;;;;;;5072065;28;20057;-67
2021/04/24 09:47:39;;;;;;;10.48;6.68;;;;;;;;;;5067622;28;20055;-67
2021/04/24 09:50:14;;;;;;;11.48;7.05;;;;;;;;;;5073267;28;20045;-67
2021/04/24 09:52:40;;;;;;;13.00;7.93;;;;;;;;;;5073513;28;20048;-70
2021/04/24 09:55:07;;;;;;;12.55;7.28;;;;;;;;;;5066710;28;20048;-67
2021/04/24 09:57:34;;;;;;;12.80;7.55;;;;;;;;;;5056754;28;20059;-66
2021/04/24 10:00:02;;;;;;;10.30;7.15;;;;;;;;;;5072686;28;20496;-67
2021/04/24 10:02:29;;;;;;;12.13;7.35;;;;;;;;;;5073795;28;20053;-67
2021/04/24 10:05:06;;;;;;;9.60;6.93;;;;;;;;;;5072707;28;20087;-67
2021/04/24 10:07:37;;;;;;;11.52;7.22;;;;;;;;;;5068160;28;20102;-67
2021/04/24 10:10:05;;;;;;;10.70;7.30;;;;;;;;;;5071483;28;20052;-67
2021/04/24 10:12:31;;;;;;;13.25;7.75;;;;;;;;;;5072239;28;20098;-67
2021/04/24 10:14:57;;;;;;;12.02;7.25;;;;;;;;;;5072561;28;20060;-68
2021/04/24 10:17:26;;;;;;;10.45;7.60;;;;;;;;;;5079793;28;20051;-68
2021/04/24 10:20:02;;;;;;;9.25;6.45;;;;;;;;;;5130646;27;20350;-66
2021/04/24 10:22:28;;;;;;;11.25;7.57;;;;;;;;;;5130395;27;20049;-67
2021/04/24 10:24:54;;;;;;;12.02;7.32;;;;;;;;;;5130703;28;20051;-67
2021/04/24 10:27:22;;;;;;;9.75;6.88;;;;;;;;;;5130394;27;20435;-67
2021/04/24 10:29:49;;;;;;;8.75;5.80;;;;;;;;;;5130677;28;20050;-67
2021/04/24 10:32:16;;;;;;;8.88;6.80;;;;;;;;;;5130755;27;20068;-67
2021/04/24 10:34:42;;;;;;;10.95;7.03;;;;;;;;;;5148611;27;20051;-68
2021/04/24 10:37:09;;;;;;;9.88;6.38;;;;;;;;;;5126768;28;20043;-68
2021/04/24 10:39:37;;;;;;;9.60;6.53;;;;;;;;;;5129692;28;20100;-68
2021/04/24 10:42:08;;;;;;;9.50;6.53;;;;;;;;;;5129987;28;20040;-68
2021/04/24 10:44:45;;;;;;;12.20;6.43;;;;;;;;;;5130162;28;20069;-68
2021/04/24 10:47:12;;;;;;;8.95;6.00;;;;;;;;;;5128012;28;20058;-68
2021/04/24 10:49:52;;;;;;;7.38;6.00;;;;;;;;;;5129978;28;20044;-68
2021/04/24 10:52:20;;;;;;;9.52;6.68;;;;;;;;;;5129078;28;20066;-68
2021/04/24 10:55:18;;;;;;;10.30;6.18;;;;;;;;;;5127431;28;20051;-68
2021/04/24 10:57:45;;;;;;;10.68;6.25;;;;;;;;;;5129496;28;20058;-68
2021/04/24 11:00:13;;;;;;;9.07;6.25;;;;;;;;;;5129828;28;20082;-68
2021/04/24 11:02:44;;;;;;;7.88;6.35;;;;;;;;;;5129892;28;20154;-70
2021/04/24 11:05:18;;;;;;;10.02;5.95;;;;;;;;;;5129455;27;20070;-68
2021/04/24 11:07:45;;;;;;;9.07;6.35;;;;;;;;;;5127012;28;20407;-70
2021/04/24 11:10:28;;;;;;;10.13;5.45;;;;;;;;;;5132378;27;20074;-66
2021/04/24 11:12:58;;;;;;;8.98;5.68;;;;;;;;;;5137567;27;20445;-66
2021/04/24 11:15:25;;;;;;;9.57;5.45;;;;;;;;;;5129973;27;20556;-66
2021/04/24 11:17:51;;;;;;;7.88;5.80;;;;;;;;;;5129673;27;20114;-66
2021/04/24 11:20:46;;;;;;;7.85;5.70;;;;;;;;;;5129909;27;20048;-66
2021/04/24 11:23:44;;;;;;;10.65;6.72;;;;;;;;;;5139703;27;20108;-67
2021/04/24 11:26:12;;;;;;;13.23;6.13;;;;;;;;;;5133139;27;20081;-67
2021/04/24 11:29:09;;;;;;;8.30;6.50;;;;;;;;;;5144456;27;20387;-67
2021/04/24 11:31:55;;;;;;;7.53;6.00;;;;;;;;;;5080358;28;20052;-67
2021/04/24 11:34:24;;;;;;;8.48;6.35;;;;;;;;;;5116074;27;20143;-67
2021/04/24 11:37:24;;;;;;;7.07;5.13;;;;;;;;;;5122599;27;20039;-67
2021/04/24 11:40:11;;;;;;;7.32;4.78;;;;;;;;;;5117642;27;20047;-67
2021/04/24 11:42:38;;;;;;;6.65;5.47;;;;;;;;;;5105627;27;20043;-67
2021/04/24 11:45:15;;;;;;;8.07;5.13;;;;;;;;;;5126812;27;20054;-67
2021/04/24 11:47:49;;;;;;;8.88;5.65;;;;;;;;;;5129599;27;20107;-67
2021/04/24 11:50:16;;;;;;;9.35;5.90;;;;;;;;;;5116578;27;20051;-67
2021/04/24 11:52:52;;;;;;;9.00;5.88;;;;;;;;;;5121133;27;20441;-67
2021/04/24 11:55:20;;;;;;;7.43;5.78;;;;;;;;;;5125925;27;20048;-67
2021/04/24 11:57:46;;;;;;;8.00;6.38;;;;;;;;;;5112719;27;20044;-67
2021/04/24 12:00:14;;;;;;;7.45;4.97;;;;;;;;;;5112982;27;20036;-67
2021/04/24 12:02:46;;;;;;;7.97;4.57;;;;;;;;;;5114035;28;20051;-67
2021/04/24 12:05:14;;;;;;;8.98;5.60;;;;;;;;;;5112149;28;20043;-67
2021/04/24 12:07:41;;;;;;;7.85;5.80;;;;;;;;;;5114088;28;20048;-67
2021/04/24 12:10:09;;;;;;;7.88;5.88;;;;;;;;;;5114703;27;20582;-67
2021/04/24 12:12:37;;;;;;;9.65;5.85;;;;;;;;;;5114718;28;20040;-67
2021/04/24 12:15:07;;;;;;;8.20;5.28;;;;;;;;;;5111874;28;20170;-69
2021/04/24 12:17:34;;;;;;;7.97;5.43;;;;;;;;;;5106862;28;20047;-66
2021/04/24 12:20:00;;;;;;;6.78;5.38;;;;;;;;;;5112709;28;20047;-66
2021/04/24 12:22:26;;;;;;;10.98;5.85;;;;;;;;;;5110870;28;20047;-68
2021/04/24 12:24:58;;;;;;;9.73;5.88;;;;;;;;;;5114450;28;20055;-67
2021/04/24 12:27:27;;;;;;;9.25;5.65;;;;;;;;;;5114017;28;20043;-67
2021/04/24 12:29:55;;;;;;;9.02;5.30;;;;;;;;;;5114621;28;20472;-67
2021/04/24 12:32:23;;;;;;;9.63;5.50;;;;;;;;;;5114159;28;20075;-68
2021/04/24 12:34:50;;;;;;;10.55;5.82;;;;;;;;;;5114356;28;20067;-67
2021/04/24 12:37:19;;;;;;;8.80;5.70;;;;;;;;;;5113523;28;20527;-67
2021/04/24 12:39:45;;;;;;;7.75;5.20;;;;;;;;;;5113351;28;20040;-72
2021/04/24 12:42:11;;;;;;;9.05;5.85;;;;;;;;;;5112134;28;20756;-68
2021/04/24 12:44:38;;;;;;;8.18;5.30;;;;;;;;;;5113781;28;20121;-69
2021/04/24 12:47:06;;;;;;;7.78;5.20;;;;;;;;;;5113741;28;20043;-68
2021/04/24 12:49:32;;;;;;;8.55;5.78;;;;;;;;;;5113838;28;20040;-69
2021/04/24 12:52:03;;;;;;;7.43;5.22;;;;;;;;;;5114175;28;20055;-69
2021/04/24 12:54:30;;;;;;;9.02;5.03;;;;;;;;;;5113549;28;20039;-69
2021/04/24 12:57:12;;;;;;;5.82;4.18;;;;;;;;;;5114159;28;20051;-74
2021/04/24 12:59:38;;;;;;;8.18;5.10;;;;;;;;;;5113463;28;20043;-70
2021/04/24 13:02:06;;;;;;;6.68;4.47;;;;;;;;;;5112818;28;20058;-71
2021/04/24 13:04:32;;;;;;;5.57;3.92;;;;;;;;;;5113732;28;20048;-71
2021/04/24 13:06:59;;;;;;;6.32;4.05;;;;;;;;;;5112892;28;20532;-68
2021/04/24 13:09:35;;;;;;;7.05;5.25;;;;;;;;;;5112079;28;20154;-69
2021/04/24 13:12:09;;;;;;;10.70;5.00;;;;;;;;;;5112532;28;20399;-70
2021/04/24 13:14:42;;;;;;;8.70;4.82;;;;;;;;;;5110507;28;20039;-68
2021/04/24 13:17:10;;;;;;;8.00;5.20;;;;;;;;;;5109980;28;20047;-72
2021/04/24 13:19:54;;;;;;;6.60;4.88;;;;;;;;;;5111963;28;20475;-71
2021/04/24 13:22:37;;;;;;;10.32;5.55;;;;;;;;;;5111962;28;20460;-74
2021/04/24 13:25:06;;;;;;;8.27;5.10;;;;;;;;;;5112313;28;20104;-70
2021/04/24 13:27:32;;;;;;;8.13;5.15;;;;;;;;;;5112775;28;20043;-70
2021/04/24 13:29:58;;;;;;;9.02;6.57;;;;;;;;;;5113129;28;20059;-71
2021/04/24 13:32:25;;;;;;;7.95;5.85;;;;;;;;;;5113098;28;20062;-70
2021/04/24 13:34:55;;;;;;;8.30;5.80;;;;;;;;;;5109997;28;20079;-70
2021/04/24 13:37:22;;;;;;;8.10;5.53;;;;;;;;;;5112711;28;20059;-69
2021/04/24 13:39:51;;;;;;;8.48;5.40;;;;;;;;;;5109625;28;20082;-70
2021/04/24 13:42:19;;;;;;;8.00;5.47;;;;;;;;;;5112053;28;20044;-71
2021/04/24 13:44:46;;;;;;;8.75;5.13;;;;;;;;;;5108150;28;20065;-70
2021/04/24 13:47:19;;;;;;;7.63;6.13;;;;;;;;;;5112065;28;20043;-72
2021/04/24 13:49:46;;;;;;;10.00;6.22;;;;;;;;;;5112525;28;20051;-70
2021/04/24 13:52:12;;;;;;;8.57;5.93;;;;;;;;;;5112433;28;20055;-70
2021/04/24 13:54:38;;;;;;;8.43;6.18;;;;;;;;;;5112299;28;20530;-71
2021/04/24 13:57:04;;;;;;;8.85;6.82;;;;;;;;;;5113924;27;20043;-72
2021/04/24 13:59:30;;;;;;;8.95;6.45;;;;;;;;;;5113565;27;20043;-70
2021/04/24 14:01:56;;;;;;;10.38;7.13;;;;;;;;;;5109917;28;20040;-70
2021/04/24 14:04:22;;;;;;;9.15;5.70;;;;;;;;;;5112596;28;20050;-72
2021/04/24 14:06:49;;;;;;;11.50;6.65;;;;;;;;;;5111429;28;20048;-69
2021/04/24 14:09:15;;;;;;;11.60;7.07;;;;;;;;;;5115410;27;20530;-67
2021/04/24 14:11:42;;;;;;;12.25;7.50;;;;;;;;;;5116556;27;20108;-69
2021/04/24 14:14:08;;;;;;;8.02;7.10;;;;;;;;;;5128209;27;20051;-68
2021/04/24 14:16:35;;;;;;;9.93;7.28;;;;;;;;;;5116115;28;20051;-68
2021/04/24 14:19:01;;;;;;;9.15;6.88;;;;;;;;;;5121574;27;20051;-69
2021/04/24 14:21:27;;;;;;;9.82;6.32;;;;;;;;;;5115083;28;20060;-67
2021/04/24 14:23:54;;;;;;;9.73;6.55;;;;;;;;;;5110469;28;20055;-67
2021/04/24 14:26:20;;;;;;;8.85;6.40;;;;;;;;;;5114842;28;20048;-68
2021/04/24 14:28:46;;;;;;;7.82;6.80;;;;;;;;;;5122759;28;20483;-65
2021/04/24 14:31:13;;;;;;;9.88;6.93;;;;;;;;;;5123333;28;20574;-65
2021/04/24 14:33:40;;;;;;;11.43;7.07;;;;;;;;;;5126125;28;20082;-66
2021/04/24 14:36:07;;;;;;;9.80;7.05;;;;;;;;;;5110568;28;20055;-68
2021/04/24 14:38:33;;;;;;;11.20;6.88;;;;;;;;;;5112215;28;20388;-66
2021/04/24 14:41:00;;;;;;;10.70;6.82;;;;;;;;;;5108334;28;20051;-69